Irvington on Hudson, New York
Current Conditions -  °F | °C
As of 11:56 PM on Monday 22 Dec 2014 (Local Time) from KHPN Reporting Station
Light Rain Light Rain  
Wind Chill: 38°   Ceiling: 300
Heat Index: 43°   Visibility: 2mi
Dew Point: 41°   Wind: 9mph
Humidity: 93%   Direction: 90°E
Pressure: 30.15"   Gusts: 17mph
Location:  41.0402°N, 73.8532°W
Report Text: KHPN 230456Z 09008G15KT 2SM -RA BR VV003 06/05 A3015 RMK AO2 SLP215 P0001 T00610050 400610006
Loading
Personal Weather Stations






























Interactive Weather Map New forecast layout! Learn more

10-Day Weather Forecast

Advertisements
Track Severe Weather on mobile